KAVP/AVP METAR and TAF weather

Enter ICAO airport designator
Station Type Date Time Source
KAVP METAR 2023/02/05 21:54 UTC NOAA

KAVP 052154Z 20006G15KT 10SM CLR 09/M07 A2993 RMK AO2 SLP142 T00941067 $


Station Type Date Time Source
KAVP Decoded METAR 2023/02/05 21:54 UTC NOAA

WILKES-BARRE/SCRANTON INTERNATIONAL , PA, United States (KAVP) 41-20N 75-44W 291M
Feb 05, 2023 - 04:54 PM EST / 2023.02.05 2154 UTC
Wind: from the SSW (200 degrees) at 7 MPH (6 KT) gusting to 17 MPH (15 KT):0
Visibility: 10 mile(s):0
Sky conditions: clear
Temperature: 48.9 F (9.4 C)
Dew Point: 19.9 F (-6.7 C)
Relative Humidity: 31%
Pressure (altimeter): 29.93 in. Hg (1013 hPa)
ob: KAVP 052154Z 20006G15KT 10SM CLR 09/M07 A2993 RMK AO2 SLP142 T00941067
cycle: 22

Station Type Date Time Source
KAVP TAF 2023/02/05 18:22 UTC NOAA

TAF KAVP 051720Z 0518/0618 23011G19KT P6SM BKN210
FM060300 20004KT P6SM OVC060
FM061000 31005KT P6SM BKN025
FM061400 33008G16KT P6SM BKN025

Example: see airport list